Time;durP1;ratioP1;P1;durP2;ratioP2;P2;SDS_P1;SDS_P2;PMS_P1;PMS_P2;Temp;Humidity;BMP_temperature;BMP_pressure;BME280_temperature;BME280_humidity;BME280_pressure;Samples;Min_cycle;Max_cycle;Signal;HPM_P1;HPM_P2
2021/12/03 00:02:23;;;;;;;8.93;2.10;;;3.30;99.90;;;;;;5075187;28;20043;-75
2021/12/03 00:04:49;;;;;;;3.88;1.90;;;2.90;99.90;;;;;;5070880;28;20079;-75
2021/12/03 00:07:15;;;;;;;5.20;1.55;;;3.50;99.90;;;;;;5058706;28;20036;-75
2021/12/03 00:09:41;;;;;;;8.15;2.08;;;2.90;99.90;;;;;;5076328;28;20621;-75
2021/12/03 00:12:07;;;;;;;8.20;1.90;;;2.90;99.90;;;;;;5076481;28;20072;-75
2021/12/03 00:14:34;;;;;;;6.43;1.77;;;2.90;99.90;;;;;;5062469;28;20040;-75
2021/12/03 00:17:01;;;;;;;6.65;2.20;;;2.90;99.90;;;;;;5095235;28;20127;-75
2021/12/03 00:19:27;;;;;;;9.25;1.90;;;3.00;99.90;;;;;;5087757;28;20451;-75
2021/12/03 00:21:53;;;;;;;4.47;1.75;;;2.80;99.90;;;;;;5064482;28;20080;-75
2021/12/03 00:24:19;;;;;;;8.45;1.63;;;3.30;99.90;;;;;;5075113;28;20040;-75
2021/12/03 00:26:45;;;;;;;8.20;1.83;;;2.80;99.90;;;;;;5075995;28;20040;-75
2021/12/03 00:29:11;;;;;;;4.68;1.67;;;2.80;99.90;;;;;;5057850;28;20078;-75
2021/12/03 00:31:37;;;;;;;5.28;1.50;;;2.80;99.90;;;;;;5079259;28;20040;-75
2021/12/03 00:34:03;;;;;;;5.00;1.70;;;2.80;99.90;;;;;;5093661;28;20118;-75
2021/12/03 00:36:29;;;;;;;12.48;2.10;;;2.80;99.90;;;;;;5092353;28;20036;-75
2021/12/03 00:38:59;;;;;;;7.25;1.58;;;2.80;99.90;;;;;;5080727;28;20068;-75
2021/12/03 00:41:28;;;;;;;7.97;1.60;;;2.90;99.90;;;;;;5058101;28;20122;-75
2021/12/03 00:43:54;;;;;;;6.22;1.80;;;2.80;99.90;;;;;;5074560;28;20174;-75
2021/12/03 00:46:21;;;;;;;8.68;1.65;;;2.80;99.90;;;;;;5024521;28;20529;-75
2021/12/03 00:48:53;;;;;;;6.57;1.90;;;2.80;99.90;;;;;;5086515;28;20052;-75
2021/12/03 00:51:21;;;;;;;9.57;2.28;;;2.90;99.90;;;;;;5060874;28;20052;-75
2021/12/03 00:53:47;;;;;;;7.38;1.83;;;2.90;99.90;;;;;;5090543;28;20142;-75
2021/12/03 00:56:14;;;;;;;11.57;2.03;;;3.60;99.90;;;;;;5067149;28;20072;-75
2021/12/03 00:58:41;;;;;;;8.27;1.80;;;2.80;99.90;;;;;;5057770;28;20140;-75
2021/12/03 01:01:07;;;;;;;5.55;1.73;;;2.80;99.90;;;;;;5075393;28;20068;-75
2021/12/03 01:03:34;;;;;;;6.47;2.20;;;2.80;99.90;;;;;;5084913;28;20044;-75
2021/12/03 01:06:01;;;;;;;10.43;2.33;;;2.80;99.90;;;;;;5077705;28;20048;-75
2021/12/03 01:08:26;;;;;;;7.28;1.98;;;3.40;99.90;;;;;;5080142;28;20032;-75
2021/12/03 01:10:52;;;;;;;7.00;1.90;;;2.80;99.90;;;;;;5108152;28;20093;-75
2021/12/03 01:13:19;;;;;;;6.95;1.90;;;2.80;99.90;;;;;;5086258;28;20135;-75
2021/12/03 01:15:45;;;;;;;5.28;2.03;;;2.80;99.90;;;;;;5057279;28;20124;-75
2021/12/03 01:18:11;;;;;;;11.35;2.40;;;2.70;99.90;;;;;;5084785;28;20471;-75
2021/12/03 01:20:39;;;;;;;6.75;2.50;;;2.80;99.90;;;;;;5060286;28;20202;-75
2021/12/03 01:23:07;;;;;;;5.82;2.25;;;2.70;99.90;;;;;;5077104;28;20064;-75
2021/12/03 01:25:33;;;;;;;9.35;1.95;;;2.80;99.90;;;;;;5092530;28;20122;-75
2021/12/03 01:28:00;;;;;;;7.07;1.52;;;2.70;99.90;;;;;;5074925;28;20036;-75
2021/12/03 01:30:28;;;;;;;8.30;2.20;;;2.70;99.90;;;;;;5079802;28;20097;-75
2021/12/03 01:32:56;;;;;;;6.93;1.45;;;2.70;99.90;;;;;;5066340;28;20048;-75
2021/12/03 01:35:22;;;;;;;6.55;2.00;;;2.70;99.90;;;;;;5077001;28;20044;-75
2021/12/03 01:37:48;;;;;;;6.35;1.70;;;2.70;99.90;;;;;;5076864;28;20377;-75
2021/12/03 01:40:18;;;;;;;6.20;1.58;;;2.70;99.90;;;;;;5094697;28;20043;-75
2021/12/03 01:42:45;;;;;;;8.18;1.70;;;2.70;99.90;;;;;;5110626;28;20174;-75
2021/12/03 01:45:13;;;;;;;7.03;1.88;;;2.70;99.90;;;;;;5086824;28;20036;-75
2021/12/03 01:47:41;;;;;;;10.05;2.10;;;2.70;99.90;;;;;;5075690;28;20079;-75
2021/12/03 01:50:08;;;;;;;4.63;1.52;;;3.40;99.90;;;;;;5074404;28;20373;-75
2021/12/03 01:52:33;;;;;;;6.88;1.88;;;2.60;99.90;;;;;;5055367;28;20119;-75
2021/12/03 01:55:01;;;;;;;11.77;1.88;;;2.60;99.90;;;;;;5077293;28;20510;-75
2021/12/03 01:57:27;;;;;;;5.15;1.65;;;3.40;99.90;;;;;;5077260;28;20100;-77
2021/12/03 01:59:53;;;;;;;6.80;1.63;;;3.00;99.90;;;;;;5076585;28;20132;-77
2021/12/03 02:02:19;;;;;;;5.93;1.98;;;2.70;99.90;;;;;;5076085;28;20075;-77
2021/12/03 02:04:45;;;;;;;6.68;2.03;;;2.60;99.90;;;;;;5076333;28;20039;-77
2021/12/03 02:07:11;;;;;;;6.57;1.88;;;2.60;99.90;;;;;;5093627;28;20047;-76
2021/12/03 02:09:36;;;;;;;8.23;2.20;;;2.60;99.90;;;;;;5056547;28;20538;-76
2021/12/03 02:12:03;;;;;;;8.40;2.08;;;3.40;99.90;;;;;;5070507;28;20079;-75
2021/12/03 02:14:28;;;;;;;4.45;1.92;;;2.60;99.90;;;;;;5073184;28;20032;-75
2021/12/03 02:16:54;;;;;;;6.10;1.95;;;2.70;99.90;;;;;;5056023;28;20051;-74
2021/12/03 02:19:20;;;;;;;6.60;2.20;;;2.70;99.90;;;;;;5055846;28;20047;-75
2021/12/03 02:21:46;;;;;;;6.35;2.13;;;3.40;99.90;;;;;;5073619;28;20451;-75
2021/12/03 02:24:12;;;;;;;6.45;2.28;;;2.70;99.90;;;;;;5092771;28;20066;-75
2021/12/03 02:26:39;;;;;;;6.40;1.70;;;2.70;99.90;;;;;;5093926;28;20044;-75
2021/12/03 02:29:05;;;;;;;6.18;1.73;;;2.70;99.90;;;;;;5053843;28;20558;-75
2021/12/03 02:31:30;;;;;;;4.90;1.77;;;3.00;99.90;;;;;;5074082;28;20044;-75
2021/12/03 02:33:56;;;;;;;4.95;1.95;;;2.80;99.90;;;;;;5091580;28;20036;-75
2021/12/03 02:36:22;;;;;;;7.82;2.00;;;2.80;99.90;;;;;;5075742;28;20392;-75
2021/12/03 02:38:48;;;;;;;8.88;2.17;;;2.80;99.90;;;;;;5057282;28;20048;-76
2021/12/03 02:41:14;;;;;;;6.63;1.52;;;2.80;99.90;;;;;;5072165;28;20509;-76
2021/12/03 02:43:40;;;;;;;5.45;1.85;;;2.90;99.90;;;;;;5092064;28;20484;-76
2021/12/03 02:46:06;;;;;;;6.57;1.73;;;3.50;99.90;;;;;;5045818;28;20041;-76
2021/12/03 02:48:32;;;;;;;7.38;2.03;;;2.90;99.90;;;;;;5073116;28;20454;-76
2021/12/03 02:50:59;;;;;;;4.22;1.65;;;2.90;99.90;;;;;;5071958;28;20032;-76
2021/12/03 02:53:25;;;;;;;9.00;1.83;;;2.90;99.90;;;;;;5070754;28;20065;-76
2021/12/03 02:55:51;;;;;;;8.30;1.95;;;3.20;99.90;;;;;;5093457;28;20484;-76
2021/12/03 02:58:18;;;;;;;8.60;2.00;;;2.90;99.90;;;;;;5074938;28;20089;-76
2021/12/03 03:00:45;;;;;;;6.53;2.00;;;2.90;99.90;;;;;;5076083;28;20036;-76
2021/12/03 03:03:11;;;;;;;6.88;2.13;;;2.80;99.90;;;;;;5071946;28;20050;-76
2021/12/03 03:05:36;;;;;;;8.73;2.70;;;2.90;99.90;;;;;;5079012;28;20032;-76
2021/12/03 03:08:03;;;;;;;7.97;2.75;;;2.80;99.90;;;;;;5057528;28;20044;-76
2021/12/03 03:10:36;;;;;;;8.98;2.83;;;2.80;99.90;;;;;;5092109;28;20050;-76
2021/12/03 03:13:01;;;;;;;8.05;3.55;;;2.90;99.90;;;;;;5093130;28;20044;-76
2021/12/03 03:15:28;;;;;;;10.93;4.47;;;3.60;99.90;;;;;;5075039;28;20036;-76
2021/12/03 03:17:54;;;;;;;10.82;4.35;;;3.40;99.90;;;;;;5091621;28;20036;-76
2021/12/03 03:20:22;;;;;;;11.70;4.32;;;2.80;99.90;;;;;;5084159;28;20045;-76
2021/12/03 03:22:49;;;;;;;14.65;4.82;;;2.80;99.90;;;;;;5071595;28;20048;-75
2021/12/03 03:25:18;;;;;;;10.27;4.93;;;2.80;99.90;;;;;;5059957;28;20484;-76
2021/12/03 03:27:44;;;;;;;8.60;5.13;;;2.80;99.90;;;;;;5091572;28;20048;-76
2021/12/03 03:30:13;;;;;;;12.20;5.60;;;2.80;99.90;;;;;;5075067;28;20054;-76
2021/12/03 03:32:39;;;;;;;12.75;6.18;;;2.80;99.90;;;;;;5095710;28;20047;-76
2021/12/03 03:35:06;;;;;;;12.07;6.47;;;2.80;99.90;;;;;;5088131;28;20381;-76
2021/12/03 03:37:32;;;;;;;14.15;7.25;;;2.80;99.90;;;;;;5059908;28;20036;-76
2021/12/03 03:39:58;;;;;;;15.55;7.72;;;2.80;99.90;;;;;;5054897;28;20043;-74
2021/12/03 03:42:23;;;;;;;15.20;8.10;;;3.00;99.90;;;;;;5071399;28;20044;-76
2021/12/03 03:44:49;;;;;;;13.82;8.25;;;2.80;99.90;;;;;;5054712;28;20044;-76
2021/12/03 03:47:15;;;;;;;16.67;8.82;;;2.80;99.90;;;;;;5090509;28;20031;-76
2021/12/03 03:49:41;;;;;;;15.48;9.52;;;2.90;99.90;;;;;;5103204;28;20036;-76
2021/12/03 03:52:08;;;;;;;15.32;10.27;;;2.80;99.90;;;;;;5090349;28;20040;-75
2021/12/03 03:54:34;;;;;;;18.17;10.27;;;2.80;99.90;;;;;;5062433;28;20080;-75
2021/12/03 03:57:01;;;;;;;18.08;10.57;;;2.90;99.90;;;;;;5072614;28;20068;-74
2021/12/03 03:59:27;;;;;;;20.83;12.80;;;2.90;99.90;;;;;;5072420;28;20115;-74
2021/12/03 04:01:53;;;;;;;22.55;12.95;;;2.80;99.90;;;;;;5038045;28;20087;-74
2021/12/03 04:04:20;;;;;;;18.35;12.93;;;2.90;99.90;;;;;;5057142;28;20040;-74
2021/12/03 04:06:47;;;;;;;18.15;14.93;;;3.30;99.90;;;;;;5092568;28;20457;-74
2021/12/03 04:09:13;;;;;;;21.63;13.52;;;2.90;99.90;;;;;;5089015;28;20048;-74
2021/12/03 04:11:39;;;;;;;20.90;14.38;;;2.90;99.90;;;;;;5089620;28;20389;-74
2021/12/03 04:14:04;;;;;;;19.52;13.70;;;2.90;99.90;;;;;;5092354;28;20054;-74
2021/12/03 04:16:31;;;;;;;26.60;14.30;;;2.90;99.90;;;;;;5091168;28;20032;-74
2021/12/03 04:18:58;;;;;;;23.52;13.68;;;2.90;99.90;;;;;;5091595;28;20384;-75
2021/12/03 04:21:24;;;;;;;19.63;13.88;;;2.90;99.90;;;;;;5087821;28;20059;-74
2021/12/03 04:23:51;;;;;;;20.55;14.40;;;2.90;99.90;;;;;;5054703;28;20044;-74
2021/12/03 04:26:16;;;;;;;22.10;14.50;;;2.90;99.90;;;;;;5066984;28;20041;-74
2021/12/03 04:28:42;;;;;;;18.58;13.75;;;3.10;99.90;;;;;;5072249;28;20039;-74
2021/12/03 04:31:08;;;;;;;21.98;13.40;;;3.40;99.90;;;;;;5070776;28;20409;-74
2021/12/03 04:33:33;;;;;;;18.63;13.20;;;3.10;99.90;;;;;;5037774;28;20044;-74
2021/12/03 04:35:59;;;;;;;22.63;14.13;;;2.90;99.90;;;;;;5055718;28;20060;-74
2021/12/03 04:38:25;;;;;;;19.77;13.00;;;2.90;99.90;;;;;;5095302;28;20081;-74
2021/12/03 04:40:51;;;;;;;20.27;13.77;;;2.90;99.90;;;;;;5080490;28;20036;-74
2021/12/03 04:43:17;;;;;;;21.10;13.27;;;2.80;99.90;;;;;;5065493;28;20084;-74
2021/12/03 04:45:43;;;;;;;24.27;13.32;;;2.80;99.90;;;;;;5074385;28;20106;-74
2021/12/03 04:48:10;;;;;;;19.92;12.75;;;2.80;99.90;;;;;;5041094;28;20052;-74
2021/12/03 04:50:39;;;;;;;21.02;13.20;;;2.80;99.90;;;;;;5076472;28;20128;-76
2021/12/03 04:53:06;;;;;;;16.17;12.55;;;2.80;99.90;;;;;;5094513;28;20422;-74
2021/12/03 04:55:32;;;;;;;21.15;13.18;;;2.80;99.90;;;;;;5060077;28;20093;-76
2021/12/03 04:57:58;;;;;;;21.15;12.73;;;2.80;99.90;;;;;;5075078;28;20040;-75
2021/12/03 05:00:36;;;;;;;20.85;13.48;;;2.80;99.90;;;;;;5094246;28;20089;-74
2021/12/03 05:03:02;;;;;;;18.95;12.52;;;2.80;99.90;;;;;;5095724;28;20126;-75
2021/12/03 05:05:32;;;;;;;17.35;11.95;;;2.80;99.90;;;;;;5077704;28;20075;-74
2021/12/03 05:08:01;;;;;;;20.30;12.32;;;3.00;99.90;;;;;;5092442;28;20059;-74
2021/12/03 05:10:29;;;;;;;14.65;12.18;;;2.80;99.90;;;;;;5077577;28;20385;-74
2021/12/03 05:13:07;;;;;;;18.33;11.95;;;2.70;99.90;;;;;;5077005;28;20044;-74
2021/12/03 05:15:35;;;;;;;15.52;11.70;;;2.70;99.90;;;;;;5060598;28;20049;-76
2021/12/03 05:18:01;;;;;;;19.13;11.65;;;2.70;99.90;;;;;;5095775;28;20040;-75
2021/12/03 05:20:27;;;;;;;23.25;12.45;;;2.70;99.90;;;;;;5093921;28;20056;-75
2021/12/03 05:22:53;;;;;;;19.27;11.80;;;2.70;99.90;;;;;;5075241;28;20055;-76
2021/12/03 05:25:20;;;;;;;21.45;12.00;;;3.20;99.90;;;;;;5059222;28;20036;-75
2021/12/03 05:27:46;;;;;;;17.63;11.48;;;2.70;99.90;;;;;;5074930;28;20074;-74
2021/12/03 05:30:12;;;;;;;22.08;11.57;;;2.70;99.90;;;;;;5073898;28;20079;-74
2021/12/03 05:32:38;;;;;;;22.63;11.95;;;2.70;99.90;;;;;;5080989;28;20043;-75
2021/12/03 05:35:06;;;;;;;17.88;11.63;;;2.70;99.90;;;;;;5094944;28;20036;-76
2021/12/03 05:37:32;;;;;;;18.35;11.15;;;2.70;99.90;;;;;;5075917;28;20048;-76
2021/12/03 05:39:57;;;;;;;16.40;11.48;;;3.40;99.90;;;;;;5040245;28;20043;-75
2021/12/03 05:42:23;;;;;;;18.13;11.90;;;2.70;99.90;;;;;;5085890;28;20368;-75
2021/12/03 05:44:49;;;;;;;15.55;11.20;;;3.30;99.90;;;;;;5079279;28;20040;-76
2021/12/03 05:47:14;;;;;;;15.35;10.60;;;3.00;99.90;;;;;;5075506;28;20461;-75
2021/12/03 05:49:40;;;;;;;18.27;11.63;;;2.80;99.90;;;;;;5054454;28;20381;-75
2021/12/03 05:52:06;;;;;;;17.58;11.23;;;3.30;99.90;;;;;;5071451;28;20134;-74
2021/12/03 05:54:32;;;;;;;14.00;11.23;;;3.60;99.90;;;;;;5094440;28;20032;-75
2021/12/03 05:56:58;;;;;;;15.43;10.45;;;2.70;99.90;;;;;;5076504;28;20032;-74
2021/12/03 05:59:24;;;;;;;16.15;10.43;;;3.30;99.90;;;;;;5094471;28;20047;-74
2021/12/03 06:01:50;;;;;;;15.65;11.23;;;2.70;99.90;;;;;;5067380;28;20037;-74
2021/12/03 06:04:15;;;;;;;15.38;10.35;;;2.70;99.90;;;;;;5074495;28;20048;-74
2021/12/03 06:06:41;;;;;;;17.42;10.32;;;2.70;99.90;;;;;;5061987;28;20048;-74
2021/12/03 06:09:07;;;;;;;18.15;11.07;;;2.70;99.90;;;;;;5072811;28;20053;-74
2021/12/03 06:11:32;;;;;;;18.58;10.73;;;2.70;99.90;;;;;;5072784;28;20124;-75
2021/12/03 06:13:58;;;;;;;16.33;9.95;;;2.70;99.90;;;;;;5090927;28;20048;-75
2021/12/03 06:16:24;;;;;;;17.30;10.63;;;2.70;99.90;;;;;;5075104;28;20518;-76
2021/12/03 06:18:50;;;;;;;20.55;11.05;;;2.80;99.90;;;;;;5056873;28;20060;-76
2021/12/03 06:21:15;;;;;;;15.05;10.25;;;2.70;99.90;;;;;;5054005;28;20135;-74
2021/12/03 06:23:42;;;;;;;14.52;10.57;;;2.70;99.90;;;;;;5089402;28;20041;-74
2021/12/03 06:26:08;;;;;;;17.02;10.82;;;2.80;99.90;;;;;;5073782;28;20041;-75
2021/12/03 06:28:36;;;;;;;17.58;11.63;;;2.80;99.90;;;;;;5089527;28;20078;-75
2021/12/03 06:31:03;;;;;;;25.58;11.90;;;2.80;99.90;;;;;;5072384;28;20040;-76
2021/12/03 06:33:29;;;;;;;18.23;10.50;;;2.80;99.90;;;;;;5072906;28;20044;-76
2021/12/03 06:35:55;;;;;;;17.85;11.25;;;2.80;99.90;;;;;;5069822;28;20047;-76
2021/12/03 06:38:22;;;;;;;17.00;11.00;;;2.90;99.90;;;;;;5065109;28;20037;-76
2021/12/03 06:40:50;;;;;;;19.90;11.57;;;2.90;99.90;;;;;;5066440;28;20086;-76
2021/12/03 06:43:16;;;;;;;18.75;11.70;;;2.90;99.90;;;;;;5072163;28;20048;-76
2021/12/03 06:45:42;;;;;;;19.48;10.85;;;2.90;99.90;;;;;;5056474;28;20036;-76
2021/12/03 06:48:09;;;;;;;17.77;10.27;;;3.20;99.90;;;;;;5055538;28;20124;-76
2021/12/03 06:50:36;;;;;;;19.00;10.85;;;3.00;99.90;;;;;;5076770;28;20040;-76
2021/12/03 06:53:06;;;;;;;19.13;11.57;;;2.90;99.90;;;;;;5053606;28;20101;-76
2021/12/03 06:55:38;;;;;;;26.10;12.18;;;3.00;99.90;;;;;;5076687;28;20044;-76
2021/12/03 06:58:04;;;;;;;17.85;10.95;;;3.00;99.90;;;;;;5039581;28;20175;-76
2021/12/03 07:00:30;;;;;;;19.20;10.60;;;3.00;99.90;;;;;;5053987;28;20119;-76
2021/12/03 07:02:55;;;;;;;17.67;10.65;;;3.60;99.90;;;;;;5022992;28;20089;-76
2021/12/03 07:05:21;;;;;;;26.90;11.43;;;3.10;99.90;;;;;;5054523;28;20132;-73
2021/12/03 07:07:48;;;;;;;22.95;10.95;;;3.10;99.90;;;;;;5088480;28;20116;-83
2021/12/03 07:10:13;;;;;;;17.52;10.45;;;3.10;99.90;;;;;;5071541;28;20044;-83
2021/12/03 07:12:39;;;;;;;21.65;11.32;;;3.10;99.90;;;;;;5037096;28;20408;-81
2021/12/03 07:15:06;;;;;;;17.73;11.60;;;3.70;99.90;;;;;;5054787;28;20075;-81
2021/12/03 07:17:33;;;;;;;13.55;9.95;;;3.10;99.90;;;;;;5054972;28;20397;-82
2021/12/03 07:20:02;;;;;;;18.10;10.57;;;3.10;99.90;;;;;;5072823;28;20484;-81
2021/12/03 07:23:40;;;;;;;18.20;10.13;;;3.10;99.90;;;;;;5049744;28;20048;-90
2021/12/03 07:37:31;;;;;;;14.73;7.60;;;3.10;99.90;;;;;;4965011;28;20493;-77
2021/12/03 07:40:00;;;;;;;20.67;8.68;;;3.00;99.90;;;;;;4982627;28;20037;-77
2021/12/03 07:42:29;;;;;;;14.05;7.63;;;2.80;99.90;;;;;;4975946;28;20049;-79
2021/12/03 07:44:55;;;;;;;18.73;7.40;;;3.70;99.90;;;;;;4999615;28;20103;-79
2021/12/03 07:47:20;;;;;;;13.57;6.88;;;3.60;99.90;;;;;;4985593;28;20059;-75
2021/12/03 07:49:48;;;;;;;11.75;6.60;;;3.10;99.90;;;;;;5075276;28;20041;-79
2021/12/03 07:52:20;;;;;;;10.13;7.10;;;3.10;99.90;;;;;;5053722;28;20052;-79
2021/12/03 07:54:46;;;;;;;11.13;6.13;;;3.10;99.90;;;;;;5062390;28;20102;-75
2021/12/03 07:57:11;;;;;;;16.08;6.40;;;3.20;99.90;;;;;;5073126;28;20040;-78
2021/12/03 07:59:38;;;;;;;13.90;5.60;;;3.20;99.90;;;;;;5073982;28;20120;-79
2021/12/03 08:02:04;;;;;;;14.07;5.70;;;3.20;99.90;;;;;;5075747;28;20493;-78
2021/12/03 08:04:30;;;;;;;13.63;5.55;;;3.20;99.90;;;;;;5055765;28;20052;-76
2021/12/03 08:06:55;;;;;;;11.98;5.43;;;3.20;99.90;;;;;;5072114;28;20045;-76
2021/12/03 08:09:22;;;;;;;15.43;5.30;;;3.30;99.90;;;;;;5054624;28;20115;-78
2021/12/03 08:11:48;;;;;;;10.93;5.65;;;3.30;99.90;;;;;;5071175;28;20098;-78
2021/12/03 08:14:14;;;;;;;10.02;5.30;;;3.40;99.90;;;;;;5058009;28;20616;-78
2021/12/03 08:16:40;;;;;;;10.48;5.20;;;4.00;99.90;;;;;;5079816;28;20024;-78
2021/12/03 08:19:06;;;;;;;13.13;5.07;;;3.30;99.90;;;;;;5078332;28;20383;-78
2021/12/03 08:21:32;;;;;;;10.20;5.15;;;3.30;99.90;;;;;;5061070;28;20044;-75
2021/12/03 08:24:00;;;;;;;12.00;5.22;;;3.40;99.90;;;;;;5078292;28;20385;-78
2021/12/03 08:26:26;;;;;;;10.52;4.68;;;3.40;99.90;;;;;;5066973;28;20049;-78
2021/12/03 08:28:52;;;;;;;12.88;5.25;;;3.40;99.90;;;;;;5070487;28;20051;-78
2021/12/03 08:31:18;;;;;;;12.32;5.15;;;3.40;99.90;;;;;;5046874;28;20041;-78
2021/12/03 08:33:44;;;;;;;9.05;4.25;;;3.50;99.90;;;;;;5061432;28;20040;-78
2021/12/03 08:36:11;;;;;;;11.60;5.07;;;3.50;99.90;;;;;;5059906;28;20033;-78
2021/12/03 08:38:37;;;;;;;12.40;4.25;;;3.70;99.90;;;;;;5083930;28;20428;-79
2021/12/03 08:41:04;;;;;;;13.43;4.97;;;3.50;99.90;;;;;;5051233;28;20047;-82
2021/12/03 08:43:30;;;;;;;9.45;4.30;;;3.60;99.90;;;;;;5055303;28;20075;-80
2021/12/03 08:45:56;;;;;;;13.35;4.80;;;3.60;99.90;;;;;;5056756;28;20048;-80
2021/12/03 08:48:23;;;;;;;17.00;5.90;;;3.60;99.90;;;;;;5056944;28;20229;-78
2021/12/03 08:51:03;;;;;;;14.00;5.55;;;3.70;99.90;;;;;;5075377;28;20040;-78
2021/12/03 08:56:13;;;;;;;14.05;4.88;;;3.70;99.90;;;;;;5067357;28;20400;-78
2021/12/03 08:58:39;;;;;;;16.80;5.80;;;4.10;99.90;;;;;;5074082;28;20036;-76
2021/12/03 09:01:07;;;;;;;11.90;6.25;;;4.40;99.90;;;;;;5075207;28;20040;-76
2021/12/03 09:03:33;;;;;;;13.90;5.93;;;3.80;99.90;;;;;;5057254;28;20553;-75
2021/12/03 09:05:59;;;;;;;19.40;6.10;;;3.80;99.90;;;;;;5071661;28;20040;-77
2021/12/03 09:08:25;;;;;;;13.32;6.50;;;3.80;99.90;;;;;;5053554;28;20040;-80
2021/12/03 09:10:50;;;;;;;12.63;6.45;;;3.90;99.90;;;;;;5035589;28;20401;-79
2021/12/03 09:13:16;;;;;;;15.13;6.68;;;3.90;99.90;;;;;;5062254;28;20485;-78
2021/12/03 09:15:53;;;;;;;19.38;7.28;;;3.90;99.90;;;;;;5075115;28;20043;-77
2021/12/03 09:18:40;;;;;;;18.08;7.57;;;3.90;99.90;;;;;;5056932;28;20044;-78
2021/12/03 09:21:09;;;;;;;;;;;4.00;99.90;;;;;;5057604;28;20459;-80
2021/12/03 09:24:03;;;;;;;16.00;8.70;;;4.00;99.90;;;;;;5055865;28;19924;-79
2021/12/03 09:26:25;;;;;;;17.35;9.57;;;4.00;99.90;;;;;;5051782;28;20056;-80
2021/12/03 09:29:00;;;;;;;26.88;9.50;;;4.00;99.90;;;;;;5045731;28;20060;-77
2021/12/03 09:31:26;;;;;;;17.05;9.50;;;4.00;99.90;;;;;;5042801;28;20063;-77
2021/12/03 09:33:52;;;;;;;23.98;10.25;;;4.00;99.90;;;;;;5052099;28;20052;-75
2021/12/03 09:36:18;;;;;;;21.30;10.18;;;4.00;99.90;;;;;;5050074;28;20386;-77
2021/12/03 09:38:44;;;;;;;25.65;11.80;;;4.00;99.90;;;;;;5067486;28;20064;-77
2021/12/03 09:41:15;;;;;;;21.75;11.43;;;4.10;99.90;;;;;;5038799;28;20032;-75
2021/12/03 09:43:47;;;;;;;22.13;11.77;;;4.10;99.90;;;;;;5053108;28;20039;-73
2021/12/03 09:46:23;;;;;;;24.10;11.55;;;4.10;99.90;;;;;;5074321;28;20036;-73
2021/12/03 09:51:21;;;;;;;28.92;12.50;;;4.10;99.90;;;;;;5074519;28;20047;-73
2021/12/03 09:56:33;;;;;;;21.27;11.45;;;4.30;99.90;;;;;;5068616;28;20041;-73
2021/12/03 10:01:38;;;;;;;21.55;12.23;;;4.30;99.90;;;;;;5056400;28;20044;-73
2021/12/03 10:04:41;;;;;;;25.83;12.13;;;4.20;99.90;;;;;;5056051;28;20047;-72
2021/12/03 10:20:49;;;;;;;32.42;11.77;;;4.60;99.90;;;;;;5070068;28;20044;-75
2021/12/03 10:35:25;;;;;;;26.52;11.10;;;4.80;99.90;;;;;;5049620;28;20068;-73
2021/12/03 10:41:03;;;;;;;24.27;10.77;;;4.70;99.90;;;;;;5068772;28;20129;-73
2021/12/03 10:46:42;;;;;;;22.35;9.82;;;4.70;99.90;;;;;;5050771;28;20056;-72
2021/12/03 10:50:06;;;;;;;24.23;8.77;;;4.60;99.90;;;;;;5051524;28;20143;-72
2021/12/03 10:52:15;;;;;;;23.88;8.10;;;4.60;99.90;;;;;;5053265;28;20400;-72
2021/12/03 11:03:28;;;;;;;22.98;7.25;;;4.60;99.90;;;;;;5054852;28;20058;-76
2021/12/03 11:06:22;;;;;;;14.07;6.72;;;4.60;99.90;;;;;;5075444;28;20565;-79
2021/12/03 12:13:54;;;;;;;18.85;6.13;;;4.50;99.90;;;;;;5052231;28;20393;-75
2021/12/03 13:56:10;;;;;;;11.00;4.43;;;4.70;99.90;;;;;;5072430;28;20134;-76
2021/12/03 13:56:35;;;;;;;15.13;4.93;;;4.70;99.90;;;;;;5042371;28;20393;-76
2021/12/03 14:08:05;;;;;;;17.73;4.70;;;4.80;99.90;;;;;;5059418;28;20105;-78
2021/12/03 14:22:11;;;;;;;15.13;5.03;;;4.90;99.90;;;;;;5071712;28;20123;-79
2021/12/03 14:38:39;;;;;;;10.80;4.70;;;5.00;99.90;;;;;;5055575;28;20044;-79
2021/12/03 14:56:47;;;;;;;10.18;4.88;;;5.10;99.90;;;;;;5069106;28;20041;-81
2021/12/03 14:59:34;;;;;;;11.63;4.65;;;5.30;99.90;;;;;;5037664;28;20467;-81
2021/12/03 15:02:22;;;;;;;12.35;5.00;;;5.20;99.90;;;;;;5035367;28;20123;-81
2021/12/03 15:07:46;;;;;;;8.85;4.75;;;5.40;99.90;;;;;;5055079;28;20492;-81
2021/12/03 15:10:34;;;;;;;10.63;4.93;;;5.20;99.90;;;;;;5063791;28;20051;-81
2021/12/03 15:27:05;;;;;;;16.75;5.07;;;5.10;99.90;;;;;;5051871;28;20122;-81
2021/12/03 15:32:09;;;;;;;11.18;5.53;;;5.60;99.90;;;;;;5039631;28;20048;-82
2021/12/03 15:34:50;;;;;;;11.13;5.63;;;5.10;99.90;;;;;;5017716;28;20132;-81
2021/12/03 16:04:40;;;;;;;15.00;7.97;;;5.30;99.90;;;;;;5061724;28;20044;-81
2021/12/03 16:11:10;;;;;;;12.38;7.63;;;4.60;99.90;;;;;;5047609;28;20049;-81
2021/12/03 16:19:02;;;;;;;13.10;8.00;;;5.00;99.90;;;;;;5014357;28;20042;-81
2021/12/03 16:51:24;;;;;;;11.25;9.18;;;5.10;99.90;;;;;;5057606;28;20535;-81
2021/12/03 16:53:53;;;;;;;11.27;10.00;;;5.10;99.90;;;;;;5067773;28;20036;-80
2021/12/03 16:56:24;;;;;;;11.93;10.43;;;5.10;99.90;;;;;;5058902;28;20476;-81
2021/12/03 16:59:02;;;;;;;12.82;10.10;;;5.00;99.90;;;;;;5057508;28;20046;-81
2021/12/03 17:01:39;;;;;;;14.60;10.45;;;5.10;99.90;;;;;;5058839;28;20040;-81
2021/12/03 17:15:37;;;;;;;13.77;12.23;;;4.90;99.90;;;;;;5095437;28;20036;-80
2021/12/03 18:00:44;;;;;;;16.60;13.95;;;5.00;99.90;;;;;;5059257;28;20055;-80
2021/12/03 18:03:28;;;;;;;15.98;14.18;;;5.10;99.90;;;;;;5070994;28;20044;-80
2021/12/03 18:43:20;;;;;;;17.05;15.23;;;4.80;99.90;;;;;;5056116;28;20052;-80
2021/12/03 18:57:14;;;;;;;20.90;18.60;;;5.20;99.90;;;;;;5091908;28;20396;-80
2021/12/03 19:00:00;;;;;;;22.40;19.55;;;6.10;99.90;;;;;;5076434;28;20040;-80
2021/12/03 19:02:27;;;;;;;;;;;5.20;99.90;;;;;;5090806;28;20036;-80
2021/12/03 19:05:11;;;;;;;23.05;19.33;;;5.20;99.90;;;;;;5092266;28;19920;-81
2021/12/03 19:07:49;;;;;;;23.45;19.85;;;5.20;99.90;;;;;;5075949;28;20097;-81
2021/12/03 19:10:21;;;;;;;25.13;20.45;;;5.20;99.90;;;;;;5093180;28;20104;-81
2021/12/03 19:12:57;;;;;;;24.92;21.15;;;5.20;99.90;;;;;;5091903;28;20040;-81
2021/12/03 19:15:25;;;;;;;24.98;21.92;;;5.60;99.90;;;;;;5092972;28;20032;-81
2021/12/03 19:17:51;;;;;;;28.77;23.23;;;6.30;99.90;;;;;;5092254;28;20032;-81
2021/12/03 19:20:27;;;;;;;27.63;22.40;;;4.90;99.90;;;;;;5085868;28;20032;-81
2021/12/03 19:22:56;;;;;;;25.35;21.38;;;5.40;99.90;;;;;;5034588;28;20349;-81
2021/12/03 19:25:22;;;;;;;25.40;20.92;;;5.60;99.90;;;;;;5018641;28;20099;-81
2021/12/03 19:27:51;;;;;;;25.95;21.92;;;5.70;99.90;;;;;;5034741;28;20527;-81
2021/12/03 19:30:19;;;;;;;26.67;22.02;;;5.50;99.90;;;;;;5020240;28;20041;-80
2021/12/03 19:32:45;;;;;;;32.10;24.17;;;5.30;99.90;;;;;;5037801;28;20067;-80
2021/12/03 19:35:17;;;;;;;28.55;23.67;;;5.50;99.90;;;;;;5065615;28;20079;-80
2021/12/03 19:37:45;;;;;;;27.58;23.73;;;5.30;99.90;;;;;;5055092;28;20049;-81
2021/12/03 19:40:21;;;;;;;31.17;24.95;;;5.30;99.90;;;;;;5054929;28;20037;-81
2021/12/03 19:43:04;;;;;;;30.05;25.08;;;5.30;99.90;;;;;;5054853;28;20084;-81
2021/12/03 19:45:34;;;;;;;29.70;25.52;;;5.90;99.90;;;;;;5054496;28;20045;-81
2021/12/03 19:48:08;;;;;;;31.40;25.92;;;5.60;99.90;;;;;;5038173;28;20490;-80
2021/12/03 19:50:45;;;;;;;33.72;26.38;;;6.10;99.90;;;;;;5054759;28;20040;-81
2021/12/03 19:53:57;;;;;;;32.55;26.27;;;5.30;99.90;;;;;;5053717;28;20101;-81
2021/12/03 19:56:31;;;;;;;30.63;26.48;;;5.30;99.90;;;;;;5054927;28;20036;-81
2021/12/03 19:59:00;;;;;;;33.38;27.73;;;5.30;99.90;;;;;;5054454;28;20040;-81
2021/12/03 20:01:38;;;;;;;41.85;29.90;;;5.30;99.90;;;;;;5054844;28;20044;-81
2021/12/03 20:04:19;;;;;;;33.07;27.63;;;5.20;99.90;;;;;;5041554;28;20056;-81
2021/12/03 20:07:05;;;;;;;36.13;29.05;;;5.30;99.90;;;;;;5053436;28;20075;-81
2021/12/03 20:09:58;;;;;;;37.13;29.58;;;5.30;99.90;;;;;;5074771;28;20124;-81
2021/12/03 20:12:26;;;;;;;35.65;28.80;;;6.00;99.90;;;;;;5044937;28;20342;-81
2021/12/03 20:14:59;;;;;;;36.60;30.02;;;6.10;99.90;;;;;;5074663;28;20048;-81
2021/12/03 20:17:31;;;;;;;37.65;29.60;;;5.30;99.90;;;;;;5058382;28;20051;-81
2021/12/03 20:20:12;;;;;;;36.58;29.20;;;5.30;99.90;;;;;;5058554;28;20467;-81
2021/12/03 20:25:30;;;;;;;38.28;30.50;;;5.50;99.90;;;;;;5074706;28;20040;-81
2021/12/03 20:28:20;;;;;;;39.83;29.20;;;5.30;99.90;;;;;;5058379;28;20416;-81
2021/12/03 20:31:00;;;;;;;39.78;30.48;;;4.80;99.90;;;;;;5058854;28;20079;-81
2021/12/03 20:38:58;;;;;;;37.78;29.90;;;5.30;99.90;;;;;;5068603;28;20116;-81
2021/12/03 20:41:42;;;;;;;39.30;30.13;;;5.40;99.90;;;;;;5012177;28;20123;-81
2021/12/03 20:52:30;;;;;;;43.25;30.90;;;5.40;99.90;;;;;;5057836;28;20505;-80
2021/12/03 20:59:26;;;;;;;39.80;29.75;;;5.40;99.90;;;;;;5047372;28;20083;-81
2021/12/03 21:10:12;;;;;;;;;;;;;;;;;;;;;